Time;durP1;ratioP1;P1;durP2;ratioP2;P2;SDS_P1;SDS_P2;PMS_P1;PMS_P2;Temp;Humidity;BMP_temperature;BMP_pressure;BME280_temperature;BME280_humidity;BME280_pressure;Samples;Min_cycle;Max_cycle;Signal;HPM_P1;HPM_P2
2023/07/20 01:35:14;;;;;;;1999.90;999.90;;;;;;;;;;5009238;23;20248;-73
2023/07/20 01:37:59;;;;;;;1999.90;999.90;;;;;;;;;;4952032;28;20241;-79
2023/07/20 01:40:45;;;;;;;1999.90;999.90;;;;;;;;;;4953368;28;20216;-74
2023/07/20 01:43:30;;;;;;;1999.90;999.90;;;;;;;;;;4953321;28;20254;-75
2023/07/20 01:46:15;;;;;;;1999.90;999.90;;;;;;;;;;4953429;28;20213;-75
2023/07/20 01:49:00;;;;;;;1999.90;999.90;;;;;;;;;;4947548;28;20303;-75
2023/07/20 01:51:46;;;;;;;1999.90;999.90;;;;;;;;;;4953316;28;20216;-70
2023/07/20 01:54:31;;;;;;;1999.90;999.90;;;;;;;;;;4952001;28;20741;-75
2023/07/20 01:57:16;;;;;;;1999.90;999.90;;;;;;;;;;4955486;28;20447;-72
2023/07/20 02:00:02;;;;;;;1999.90;999.90;;;;;;;;;;4949786;28;20316;-77
2023/07/20 02:02:47;;;;;;;1999.90;999.90;;;;;;;;;;4953374;28;20294;-74
2023/07/20 02:05:32;;;;;;;1999.90;999.90;;;;;;;;;;4955139;28;20348;-74
2023/07/20 02:08:19;;;;;;;1999.90;999.90;;;;;;;;;;4951769;28;20284;-75
2023/07/20 02:11:04;;;;;;;1999.90;999.90;;;;;;;;;;4950898;28;20348;-76
2023/07/20 02:13:49;;;;;;;1999.90;999.90;;;;;;;;;;4962708;28;20601;-76
2023/07/20 02:16:34;;;;;;;1999.90;999.90;;;;;;;;;;4957306;28;20911;-73
2023/07/20 02:19:19;;;;;;;1999.90;999.90;;;;;;;;;;4953775;28;20740;-74
2023/07/20 02:22:05;;;;;;;1999.90;999.90;;;;;;;;;;4955162;28;20220;-75
2023/07/20 02:24:51;;;;;;;1999.90;999.90;;;;;;;;;;4966893;28;20604;-76
2023/07/20 02:27:37;;;;;;;1999.90;999.90;;;;;;;;;;4967751;28;20216;-77
2023/07/20 02:30:22;;;;;;;1999.90;999.90;;;;;;;;;;4956819;28;20272;-76
2023/07/20 02:33:07;;;;;;;1999.90;999.90;;;;;;;;;;4950140;28;20231;-76
2023/07/20 02:35:52;;;;;;;1999.90;999.90;;;;;;;;;;4967132;28;20588;-75
2023/07/20 02:38:37;;;;;;;1999.90;999.90;;;;;;;;;;4965401;28;20220;-77
2023/07/20 02:41:23;;;;;;;1999.90;999.90;;;;;;;;;;4974516;28;20212;-75
2023/07/20 02:44:08;;;;;;;1999.90;999.90;;;;;;;;;;4953620;28;20237;-76
2023/07/20 02:46:53;;;;;;;1999.90;999.90;;;;;;;;;;4966198;28;20687;-77
2023/07/20 02:49:38;;;;;;;1999.90;999.90;;;;;;;;;;4968110;28;20208;-76
2023/07/20 02:52:24;;;;;;;1999.90;999.90;;;;;;;;;;4968878;28;21173;-76
2023/07/20 02:55:09;;;;;;;1999.90;999.90;;;;;;;;;;4962104;28;20211;-76
2023/07/20 02:57:55;;;;;;;1999.90;999.90;;;;;;;;;;4967898;28;20580;-77
2023/07/20 03:00:40;;;;;;;1999.90;999.90;;;;;;;;;;4972919;28;20281;-76
2023/07/20 03:03:25;;;;;;;1999.90;999.90;;;;;;;;;;4959711;28;20232;-76
2023/07/20 03:06:10;;;;;;;1999.90;999.90;;;;;;;;;;4956287;29;20216;-76
2023/07/20 03:08:55;;;;;;;1999.90;999.90;;;;;;;;;;4966478;28;20492;-76
2023/07/20 03:11:40;;;;;;;1999.90;999.90;;;;;;;;;;4967026;28;20216;-78
2023/07/20 03:14:26;;;;;;;1999.90;999.90;;;;;;;;;;4956840;28;20271;-76
2023/07/20 03:17:11;;;;;;;1999.90;999.90;;;;;;;;;;4969463;28;20256;-76
2023/07/20 03:19:56;;;;;;;1999.90;999.90;;;;;;;;;;4974211;28;20232;-76
2023/07/20 03:22:41;;;;;;;1999.90;999.90;;;;;;;;;;4964581;28;20276;-74
2023/07/20 03:25:26;;;;;;;1999.90;999.90;;;;;;;;;;4963133;28;20283;-75
2023/07/20 03:28:10;;;;;;;1999.90;999.90;;;;;;;;;;4957198;28;20248;-78
2023/07/20 03:30:57;;;;;;;1999.90;999.90;;;;;;;;;;4953609;28;20244;-76
2023/07/20 03:33:42;;;;;;;1999.90;999.90;;;;;;;;;;4960910;28;20239;-75
2023/07/20 03:36:27;;;;;;;1999.90;999.90;;;;;;;;;;4943203;29;20264;-76
2023/07/20 03:39:12;;;;;;;1999.90;999.90;;;;;;;;;;4956842;28;20217;-76
2023/07/20 03:41:58;;;;;;;1999.90;999.90;;;;;;;;;;4955434;28;20817;-73
2023/07/20 03:44:43;;;;;;;1999.90;999.90;;;;;;;;;;4958536;28;20236;-77
2023/07/20 03:47:30;;;;;;;1999.90;999.90;;;;;;;;;;4954127;28;20549;-74
2023/07/20 03:50:14;;;;;;;1999.90;999.90;;;;;;;;;;4952414;28;20228;-75
2023/07/20 03:52:59;;;;;;;1999.90;999.90;;;;;;;;;;4955498;28;20229;-76
2023/07/20 03:55:46;;;;;;;1999.90;999.90;;;;;;;;;;4957161;28;20216;-76
2023/07/20 03:58:31;;;;;;;1999.90;999.90;;;;;;;;;;4951501;28;20200;-76
2023/07/20 04:01:16;;;;;;;1999.90;999.90;;;;;;;;;;4960142;28;20220;-75
2023/07/20 04:04:02;;;;;;;1999.90;999.90;;;;;;;;;;4959124;28;20936;-76
2023/07/20 04:06:47;;;;;;;1999.90;999.90;;;;;;;;;;4955318;29;20212;-74
2023/07/20 04:09:33;;;;;;;1999.90;999.90;;;;;;;;;;4955500;29;20736;-76
2023/07/20 04:12:17;;;;;;;1999.90;999.90;;;;;;;;;;4955717;29;20203;-76
2023/07/20 04:15:03;;;;;;;1999.90;999.90;;;;;;;;;;4955797;28;20232;-77
2023/07/20 04:17:48;;;;;;;1999.90;999.90;;;;;;;;;;4955804;29;20268;-75
2023/07/20 04:20:34;;;;;;;1999.90;999.90;;;;;;;;;;4955244;29;20280;-76
2023/07/20 04:23:19;;;;;;;1999.90;999.90;;;;;;;;;;4955511;28;20229;-77
2023/07/20 04:26:06;;;;;;;1999.90;999.90;;;;;;;;;;4955563;29;20260;-76
2023/07/20 04:28:52;;;;;;;1999.90;999.90;;;;;;;;;;4955890;29;20203;-76
2023/07/20 04:31:38;;;;;;;1999.90;999.90;;;;;;;;;;4955353;29;20706;-76
2023/07/20 04:34:22;;;;;;;1999.90;999.90;;;;;;;;;;4955218;28;20240;-76
2023/07/20 04:37:08;;;;;;;1999.90;999.90;;;;;;;;;;4955458;29;20209;-77
2023/07/20 04:39:53;;;;;;;1999.90;999.90;;;;;;;;;;4955130;29;20236;-77
2023/07/20 04:42:38;;;;;;;1999.90;999.90;;;;;;;;;;4953455;28;20409;-76
2023/07/20 04:45:24;;;;;;;1999.90;999.90;;;;;;;;;;4954979;29;20278;-77
2023/07/20 04:48:10;;;;;;;1999.90;999.90;;;;;;;;;;4955073;29;20689;-76
2023/07/20 04:50:56;;;;;;;1999.90;999.90;;;;;;;;;;4954767;29;20794;-77
2023/07/20 04:53:43;;;;;;;1999.90;999.90;;;;;;;;;;4955232;28;20516;-76
2023/07/20 04:56:28;;;;;;;1999.90;999.90;;;;;;;;;;4954894;29;20233;-76
2023/07/20 04:59:12;;;;;;;1999.90;999.90;;;;;;;;;;4954262;29;20965;-76
2023/07/20 05:01:57;;;;;;;1999.90;999.90;;;;;;;;;;4954873;29;20204;-76
2023/07/20 05:04:42;;;;;;;1999.90;999.90;;;;;;;;;;4954864;28;20763;-76
2023/07/20 05:07:27;;;;;;;1999.90;999.90;;;;;;;;;;4955337;29;20221;-76
2023/07/20 05:10:13;;;;;;;1999.90;999.90;;;;;;;;;;4954810;29;20276;-76
2023/07/20 05:12:58;;;;;;;1999.90;999.90;;;;;;;;;;4954835;28;20204;-76
2023/07/20 05:15:43;;;;;;;1999.90;999.90;;;;;;;;;;4954693;29;20217;-76
2023/07/20 05:18:28;;;;;;;1999.90;999.90;;;;;;;;;;4954699;29;20208;-76
2023/07/20 05:21:13;;;;;;;1999.90;999.90;;;;;;;;;;4954349;29;20232;-76
2023/07/20 05:23:58;;;;;;;1999.90;999.90;;;;;;;;;;4954547;28;20236;-76
2023/07/20 05:26:44;;;;;;;1999.90;999.90;;;;;;;;;;4954750;29;20740;-75
2023/07/20 05:29:29;;;;;;;1999.90;999.90;;;;;;;;;;4954127;29;20200;-76
2023/07/20 05:32:14;;;;;;;1999.90;999.90;;;;;;;;;;4954459;29;20283;-76
2023/07/20 05:34:59;;;;;;;1999.90;999.90;;;;;;;;;;4954235;28;20244;-75
2023/07/20 05:37:44;;;;;;;1999.90;999.90;;;;;;;;;;4953050;29;20411;-76
2023/07/20 05:40:29;;;;;;;1999.90;999.90;;;;;;;;;;4954059;29;20222;-76
2023/07/20 05:43:15;;;;;;;1999.90;999.90;;;;;;;;;;4954426;28;20232;-76
2023/07/20 05:46:00;;;;;;;1999.90;999.90;;;;;;;;;;4954453;29;20585;-77
2023/07/20 05:48:45;;;;;;;1999.90;999.90;;;;;;;;;;4957081;29;20208;-76
2023/07/20 05:51:30;;;;;;;1999.90;999.90;;;;;;;;;;4955972;29;20619;-74
2023/07/20 05:54:15;;;;;;;1999.90;999.90;;;;;;;;;;4950918;28;21476;-74
2023/07/20 05:57:00;;;;;;;1999.90;999.90;;;;;;;;;;4951377;28;20216;-77
2023/07/20 05:59:46;;;;;;;1999.90;999.90;;;;;;;;;;4951995;28;20772;-72
2023/07/20 06:02:32;;;;;;;1999.90;999.90;;;;;;;;;;4951351;28;20721;-76
2023/07/20 06:05:17;;;;;;;1999.90;999.90;;;;;;;;;;4953469;28;20212;-71
2023/07/20 06:08:02;;;;;;;1999.90;999.90;;;;;;;;;;4954442;28;20208;-78
2023/07/20 06:10:50;;;;;;;1999.90;999.90;;;;;;;;;;4951234;28;20263;-75
2023/07/20 06:13:35;;;;;;;1999.90;999.90;;;;;;;;;;4952702;28;20283;-75
2023/07/20 06:16:21;;;;;;;1999.90;999.90;;;;;;;;;;4953213;28;20599;-75
2023/07/20 06:19:06;;;;;;;1999.90;999.90;;;;;;;;;;4953018;28;20220;-74
2023/07/20 06:21:51;;;;;;;1999.90;999.90;;;;;;;;;;4951958;28;20209;-75
2023/07/20 06:24:36;;;;;;;1999.90;999.90;;;;;;;;;;4952858;28;20228;-74
2023/07/20 06:27:21;;;;;;;1999.90;999.90;;;;;;;;;;4952939;28;20210;-74
2023/07/20 06:30:07;;;;;;;1999.90;999.90;;;;;;;;;;4958605;28;20703;-72
2023/07/20 06:32:54;;;;;;;1999.90;999.90;;;;;;;;;;4953347;28;20255;-71
2023/07/20 06:35:42;;;;;;;1999.90;999.90;;;;;;;;;;4957779;28;20227;-73
2023/07/20 06:38:28;;;;;;;1999.90;999.90;;;;;;;;;;4948272;28;20208;-73
2023/07/20 06:41:13;;;;;;;1999.90;999.90;;;;;;;;;;4958450;28;20220;-72
2023/07/20 06:43:58;;;;;;;1999.90;999.90;;;;;;;;;;4949849;28;20235;-72
2023/07/20 06:46:43;;;;;;;1999.90;999.90;;;;;;;;;;4957601;28;20219;-73
2023/07/20 06:49:30;;;;;;;1999.90;999.90;;;;;;;;;;4952672;28;20412;-73
2023/07/20 06:52:15;;;;;;;1999.90;999.90;;;;;;;;;;4951725;28;20264;-74
2023/07/20 06:55:00;;;;;;;1999.90;999.90;;;;;;;;;;4953003;28;20260;-75
2023/07/20 06:57:44;;;;;;;1999.90;999.90;;;;;;;;;;4950284;28;20220;-75
2023/07/20 07:00:30;;;;;;;1999.90;999.90;;;;;;;;;;4950502;28;20291;-74
2023/07/20 07:03:14;;;;;;;1999.90;999.90;;;;;;;;;;4953267;28;20240;-75
2023/07/20 07:06:01;;;;;;;1999.90;999.90;;;;;;;;;;4964358;28;20219;-74
2023/07/20 07:08:46;;;;;;;1999.90;999.90;;;;;;;;;;4957096;28;20235;-76
2023/07/20 07:11:30;;;;;;;1999.90;999.90;;;;;;;;;;4956779;28;20229;-74
2023/07/20 07:14:15;;;;;;;1999.90;999.90;;;;;;;;;;4962581;28;20784;-74
2023/07/20 07:17:00;;;;;;;1999.90;999.90;;;;;;;;;;4959659;28;20230;-73
2023/07/20 07:19:45;;;;;;;1999.90;999.90;;;;;;;;;;4959715;28;20369;-73
2023/07/20 07:22:32;;;;;;;1999.90;999.90;;;;;;;;;;4954700;28;20456;-73
2023/07/20 07:25:17;;;;;;;1999.90;999.90;;;;;;;;;;4960723;28;20277;-73
2023/07/20 07:28:02;;;;;;;1999.90;999.90;;;;;;;;;;4964222;28;20218;-73
2023/07/20 07:30:46;;;;;;;1999.90;999.90;;;;;;;;;;4954129;28;20199;-74
2023/07/20 07:33:31;;;;;;;1999.90;999.90;;;;;;;;;;4954809;28;20355;-74
2023/07/20 07:36:16;;;;;;;1999.90;999.90;;;;;;;;;;4962962;28;20222;-74
2023/07/20 07:39:02;;;;;;;1999.90;999.90;;;;;;;;;;4958372;28;20211;-74
2023/07/20 07:41:47;;;;;;;1999.90;999.90;;;;;;;;;;4955935;28;20452;-73
2023/07/20 07:44:32;;;;;;;1999.90;999.90;;;;;;;;;;4955846;28;20239;-74
2023/07/20 07:47:17;;;;;;;1999.90;999.90;;;;;;;;;;4957922;28;20216;-75
2023/07/20 07:50:02;;;;;;;1999.90;999.90;;;;;;;;;;4952118;28;20205;-73
2023/07/20 07:52:48;;;;;;;1999.90;999.90;;;;;;;;;;4959326;28;20213;-74
2023/07/20 07:55:34;;;;;;;1999.90;999.90;;;;;;;;;;4955460;28;20212;-74
2023/07/20 07:58:19;;;;;;;1999.90;999.90;;;;;;;;;;4962813;28;20220;-74
2023/07/20 08:01:04;;;;;;;1999.90;999.90;;;;;;;;;;4954149;28;20365;-74
2023/07/20 08:03:49;;;;;;;1999.90;999.90;;;;;;;;;;4963449;28;20227;-74
2023/07/20 08:06:34;;;;;;;1999.90;999.90;;;;;;;;;;4959020;28;20721;-73
2023/07/20 08:09:19;;;;;;;1999.90;999.90;;;;;;;;;;4959004;28;20399;-72
2023/07/20 08:12:06;;;;;;;1999.90;999.90;;;;;;;;;;4960919;28;20216;-73
2023/07/20 08:14:52;;;;;;;1999.90;999.90;;;;;;;;;;4960728;28;20240;-73
2023/07/20 08:17:37;;;;;;;1999.90;999.90;;;;;;;;;;4952616;28;20512;-72
2023/07/20 08:20:26;;;;;;;1999.90;999.90;;;;;;;;;;4958372;28;20224;-73
2023/07/20 08:23:11;;;;;;;1999.90;999.90;;;;;;;;;;4959799;28;20231;-72
2023/07/20 08:25:56;;;;;;;1999.90;999.90;;;;;;;;;;4952102;28;20709;-72
2023/07/20 08:28:43;;;;;;;1999.90;999.90;;;;;;;;;;4959929;28;20212;-72
2023/07/20 08:31:28;;;;;;;1999.90;999.90;;;;;;;;;;4956378;28;20208;-72
2023/07/20 08:34:13;;;;;;;1999.90;999.90;;;;;;;;;;4954767;28;20384;-71
2023/07/20 08:36:58;;;;;;;1999.90;999.90;;;;;;;;;;4955986;28;20431;-72
2023/07/20 08:39:43;;;;;;;1999.90;999.90;;;;;;;;;;4957467;28;20209;-73
2023/07/20 08:42:29;;;;;;;1999.90;999.90;;;;;;;;;;4955267;28;20221;-72
2023/07/20 08:45:17;;;;;;;1999.90;999.90;;;;;;;;;;4954760;28;20207;-73
2023/07/20 08:48:03;;;;;;;1999.90;999.90;;;;;;;;;;4958259;28;20261;-74
2023/07/20 08:50:48;;;;;;;1999.90;999.90;;;;;;;;;;4953736;28;20577;-73
2023/07/20 08:53:33;;;;;;;1999.90;999.90;;;;;;;;;;4954871;28;20603;-74
2023/07/20 08:56:18;;;;;;;1999.90;999.90;;;;;;;;;;4963695;28;20875;-73
2023/07/20 08:59:04;;;;;;;1999.90;999.90;;;;;;;;;;4962252;28;20292;-73
2023/07/20 09:01:54;;;;;;;1999.90;999.90;;;;;;;;;;4954656;29;20759;-72
2023/07/20 09:04:38;;;;;;;1999.90;999.90;;;;;;;;;;4954536;28;20599;-73
2023/07/20 09:07:24;;;;;;;1999.90;999.90;;;;;;;;;;4955019;29;20217;-72
2023/07/20 09:10:10;;;;;;;1999.90;999.90;;;;;;;;;;4954302;29;20205;-73
2023/07/20 09:12:55;;;;;;;1999.90;999.90;;;;;;;;;;4953099;28;20925;-72
2023/07/20 09:15:41;;;;;;;1999.90;999.90;;;;;;;;;;4954660;29;20292;-74
2023/07/20 09:18:27;;;;;;;1999.90;999.90;;;;;;;;;;4954523;29;20253;-73
2023/07/20 09:21:17;;;;;;;1999.90;999.90;;;;;;;;;;4961246;28;20219;-73
2023/07/20 09:24:02;;;;;;;1999.90;999.90;;;;;;;;;;4956407;28;20725;-73
2023/07/20 09:26:48;;;;;;;1999.90;999.90;;;;;;;;;;4953432;28;20225;-73
2023/07/20 09:29:33;;;;;;;1999.90;999.90;;;;;;;;;;4958774;28;20348;-73
2023/07/20 09:32:20;;;;;;;1999.90;999.90;;;;;;;;;;4961569;28;20259;-72
2023/07/20 09:35:06;;;;;;;1999.90;999.90;;;;;;;;;;4962278;28;20243;-74
2023/07/20 09:37:53;;;;;;;1999.90;999.90;;;;;;;;;;4957105;28;20209;-73
2023/07/20 09:40:38;;;;;;;1999.90;999.90;;;;;;;;;;4953496;28;20649;-73
2023/07/20 09:43:24;;;;;;;1999.90;999.90;;;;;;;;;;4967896;28;20232;-74
2023/07/20 09:46:09;;;;;;;1999.90;999.90;;;;;;;;;;4968877;28;20207;-74
2023/07/20 09:48:54;;;;;;;1999.90;999.90;;;;;;;;;;4957789;28;20205;-73
2023/07/20 09:51:42;;;;;;;1999.90;999.90;;;;;;;;;;4964251;28;20220;-74
2023/07/20 09:54:27;;;;;;;1999.90;999.90;;;;;;;;;;4957063;28;20232;-73
2023/07/20 09:57:14;;;;;;;1999.90;999.90;;;;;;;;;;4953173;28;20307;-75
2023/07/20 09:59:59;;;;;;;1999.90;999.90;;;;;;;;;;4952780;29;20297;-74
2023/07/20 10:02:45;;;;;;;1999.90;999.90;;;;;;;;;;4955172;28;20200;-74
2023/07/20 10:05:33;;;;;;;1999.90;999.90;;;;;;;;;;4953391;29;20216;-74
2023/07/20 10:08:21;;;;;;;1999.90;999.90;;;;;;;;;;4953065;28;20790;-74
2023/07/20 10:11:08;;;;;;;1999.90;999.90;;;;;;;;;;4950112;28;20212;-73
2023/07/20 10:13:54;;;;;;;1999.90;999.90;;;;;;;;;;4949900;28;20601;-73
2023/07/20 10:16:41;;;;;;;1999.90;999.90;;;;;;;;;;4953048;28;20815;-73
2023/07/20 10:19:32;;;;;;;1999.90;999.90;;;;;;;;;;4953511;29;20247;-73
2023/07/20 10:22:20;;;;;;;1999.90;999.90;;;;;;;;;;4953506;29;20224;-73
2023/07/20 10:25:08;;;;;;;1999.90;999.90;;;;;;;;;;4953438;28;20930;-74
2023/07/20 10:27:53;;;;;;;1999.90;999.90;;;;;;;;;;4953613;29;20300;-74
2023/07/20 10:30:39;;;;;;;1999.90;999.90;;;;;;;;;;4953394;29;20207;-73
2023/07/20 10:33:25;;;;;;;1999.90;999.90;;;;;;;;;;4953605;28;20369;-73
2023/07/20 10:36:12;;;;;;;1999.90;999.90;;;;;;;;;;4953683;29;20209;-74
2023/07/20 10:38:58;;;;;;;1999.90;999.90;;;;;;;;;;4953633;28;20205;-73
2023/07/20 10:41:44;;;;;;;1999.90;999.90;;;;;;;;;;4956994;29;20311;-75
2023/07/20 10:44:29;;;;;;;1999.90;999.90;;;;;;;;;;4957314;28;20224;-74
2023/07/20 10:47:14;;;;;;;1999.90;999.90;;;;;;;;;;4957377;29;20574;-73
2023/07/20 10:49:59;;;;;;;1999.90;999.90;;;;;;;;;;4957171;29;20308;-73
2023/07/20 10:53:04;;;;;;;1999.90;999.90;;;;;;;;;;4957361;28;20205;-73
2023/07/20 10:55:50;;;;;;;1999.90;999.90;;;;;;;;;;4957272;29;20313;-73
2023/07/20 10:58:37;;;;;;;1999.90;999.90;;;;;;;;;;4957332;29;20292;-74
2023/07/20 11:01:22;;;;;;;1999.90;999.90;;;;;;;;;;4957328;29;20217;-74
2023/07/20 11:04:09;;;;;;;1999.90;999.90;;;;;;;;;;4957132;28;20291;-74
2023/07/20 11:06:56;;;;;;;1999.90;999.90;;;;;;;;;;4957039;29;20237;-74
2023/07/20 11:09:41;;;;;;;1999.90;999.90;;;;;;;;;;4956693;29;20279;-74
2023/07/20 11:12:26;;;;;;;1999.90;999.90;;;;;;;;;;4957157;29;20221;-73
2023/07/20 11:15:12;;;;;;;1999.90;999.90;;;;;;;;;;4956916;29;20373;-73
2023/07/20 11:18:11;;;;;;;1999.90;999.90;;;;;;;;;;4956971;29;20220;-74
2023/07/20 11:20:56;;;;;;;1999.90;999.90;;;;;;;;;;4955686;29;20443;-74
2023/07/20 11:23:51;;;;;;;1999.90;999.90;;;;;;;;;;4956481;28;20229;-74
2023/07/20 11:26:43;;;;;;;1999.90;999.90;;;;;;;;;;4956680;29;20805;-73
2023/07/20 11:29:28;;;;;;;1999.90;999.90;;;;;;;;;;4956435;29;20243;-73
2023/07/20 11:32:21;;;;;;;1999.90;999.90;;;;;;;;;;4956659;29;20216;-74
2023/07/20 11:35:06;;;;;;;1999.90;999.90;;;;;;;;;;4956429;28;20239;-74
2023/07/20 11:37:51;;;;;;;1999.90;999.90;;;;;;;;;;4956836;29;20208;-74
2023/07/20 11:40:36;;;;;;;1999.90;999.90;;;;;;;;;;4955987;29;20208;-74
2023/07/20 11:43:23;;;;;;;1999.90;999.90;;;;;;;;;;4956299;28;20235;-73
2023/07/20 11:46:08;;;;;;;1999.90;999.90;;;;;;;;;;4956249;29;20239;-75
2023/07/20 11:48:57;;;;;;;1999.90;999.90;;;;;;;;;;4956288;29;20274;-74
2023/07/20 11:51:42;;;;;;;1999.90;999.90;;;;;;;;;;4955125;28;20245;-74
2023/07/20 11:54:28;;;;;;;1999.90;999.90;;;;;;;;;;4956179;28;20241;-73
2023/07/20 11:57:17;;;;;;;1999.90;999.90;;;;;;;;;;4955081;29;20774;-73
2023/07/20 12:00:11;;;;;;;1999.90;999.90;;;;;;;;;;4955620;29;20645;-73
2023/07/20 12:02:56;;;;;;;1999.90;999.90;;;;;;;;;;4955702;28;20231;-73
2023/07/20 12:05:42;;;;;;;1999.90;999.90;;;;;;;;;;4955919;29;20228;-73
2023/07/20 12:08:27;;;;;;;1999.90;999.90;;;;;;;;;;4955962;29;20215;-72
2023/07/20 12:11:12;;;;;;;1999.90;999.90;;;;;;;;;;4955556;29;20228;-72
2023/07/20 12:13:58;;;;;;;1999.90;999.90;;;;;;;;;;4955686;28;20735;-73
2023/07/20 12:16:43;;;;;;;1999.90;999.90;;;;;;;;;;4954734;29;20416;-72
2023/07/20 12:19:28;;;;;;;1999.90;999.90;;;;;;;;;;4955147;29;20249;-72
2023/07/20 12:22:14;;;;;;;1999.90;999.90;;;;;;;;;;4955912;29;20222;-73
2023/07/20 12:24:59;;;;;;;1999.90;999.90;;;;;;;;;;4955482;28;20352;-73
2023/07/20 12:27:45;;;;;;;1999.90;999.90;;;;;;;;;;4955641;29;20345;-72
2023/07/20 12:30:30;;;;;;;1999.90;999.90;;;;;;;;;;4955306;29;20213;-72
2023/07/20 12:33:15;;;;;;;1999.90;999.90;;;;;;;;;;4951655;28;21355;-73
2023/07/20 12:36:01;;;;;;;1999.90;999.90;;;;;;;;;;4947073;29;20207;-74
2023/07/20 12:38:47;;;;;;;1999.90;999.90;;;;;;;;;;4953663;29;20307;-74
2023/07/20 12:41:32;;;;;;;1999.90;999.90;;;;;;;;;;4958527;28;20231;-70
2023/07/20 12:44:17;;;;;;;1999.90;999.90;;;;;;;;;;4952600;28;20552;-71
2023/07/20 12:47:02;;;;;;;1999.90;999.90;;;;;;;;;;4953629;28;20209;-74
2023/07/20 12:49:47;;;;;;;1999.90;999.90;;;;;;;;;;4954126;28;20357;-75
2023/07/20 12:52:32;;;;;;;1999.90;999.90;;;;;;;;;;4960887;28;20527;-74
2023/07/20 12:55:18;;;;;;;1999.90;999.90;;;;;;;;;;4953787;29;20220;-73
2023/07/20 12:58:03;;;;;;;1999.90;999.90;;;;;;;;;;4935823;29;20209;-76
2023/07/20 13:00:48;;;;;;;1999.90;999.90;;;;;;;;;;4949158;28;20217;-72
2023/07/20 13:03:33;;;;;;;1999.90;999.90;;;;;;;;;;4951856;28;20228;-74
2023/07/20 13:06:18;;;;;;;1999.90;999.90;;;;;;;;;;4953060;28;20696;-74
2023/07/20 13:09:03;;;;;;;1999.90;999.90;;;;;;;;;;4954346;28;20253;-74
2023/07/20 13:11:49;;;;;;;1999.90;999.90;;;;;;;;;;4958490;28;20528;-72
2023/07/20 13:14:34;;;;;;;1999.90;999.90;;;;;;;;;;4953959;28;20248;-73
2023/07/20 13:17:19;;;;;;;1999.90;999.90;;;;;;;;;;4956828;28;20695;-73
2023/07/20 13:20:04;;;;;;;1999.90;999.90;;;;;;;;;;4950861;28;20208;-74
2023/07/20 13:22:49;;;;;;;1999.90;999.90;;;;;;;;;;4954851;28;20727;-73
2023/07/20 13:25:34;;;;;;;1999.90;999.90;;;;;;;;;;4954338;28;20208;-72
2023/07/20 13:28:20;;;;;;;1999.90;999.90;;;;;;;;;;4952191;28;21505;-73
2023/07/20 13:31:05;;;;;;;1999.90;999.90;;;;;;;;;;4950341;28;20216;-73
2023/07/20 13:33:50;;;;;;;1999.90;999.90;;;;;;;;;;4952646;28;20244;-73
2023/07/20 13:36:35;;;;;;;1999.90;999.90;;;;;;;;;;4951462;28;20220;-72
2023/07/20 13:39:24;;;;;;;1999.90;999.90;;;;;;;;;;4958763;28;20280;-73
2023/07/20 13:42:10;;;;;;;1999.90;999.90;;;;;;;;;;4957981;28;20237;-73
2023/07/20 13:44:57;;;;;;;1999.90;999.90;;;;;;;;;;4957832;28;20278;-73
2023/07/20 13:47:41;;;;;;;1999.90;999.90;;;;;;;;;;4949136;28;20424;-73
2023/07/20 13:50:28;;;;;;;1999.90;999.90;;;;;;;;;;4963050;28;20327;-73
2023/07/20 13:53:13;;;;;;;1999.90;999.90;;;;;;;;;;4953886;28;20800;-73
2023/07/20 13:55:59;;;;;;;1999.90;999.90;;;;;;;;;;4954625;28;20582;-73
2023/07/20 13:58:44;;;;;;;1999.90;999.90;;;;;;;;;;4959157;28;20291;-73
2023/07/20 14:01:32;;;;;;;1999.90;999.90;;;;;;;;;;4949061;28;20213;-73
2023/07/20 14:04:17;;;;;;;1999.90;999.90;;;;;;;;;;4952872;28;20236;-73
2023/07/20 14:07:02;;;;;;;1999.90;999.90;;;;;;;;;;4956131;28;20421;-73
2023/07/20 14:09:47;;;;;;;1999.90;999.90;;;;;;;;;;4951424;28;20586;-73
2023/07/20 14:12:32;;;;;;;1999.90;999.90;;;;;;;;;;4954125;28;20693;-72
2023/07/20 14:15:18;;;;;;;1999.90;999.90;;;;;;;;;;4954918;28;20216;-73
2023/07/20 14:18:05;;;;;;;1999.90;999.90;;;;;;;;;;4957298;28;20268;-73
2023/07/20 14:20:50;;;;;;;1999.90;999.90;;;;;;;;;;4951587;28;20220;-73
2023/07/20 14:23:36;;;;;;;1999.90;999.90;;;;;;;;;;4958047;28;20239;-74
2023/07/20 14:26:21;;;;;;;1999.90;999.90;;;;;;;;;;4954603;28;20211;-73
2023/07/20 14:29:06;;;;;;;1999.90;999.90;;;;;;;;;;4952941;28;20217;-73
2023/07/20 14:31:52;;;;;;;1999.90;999.90;;;;;;;;;;4956073;28;20278;-73
2023/07/20 14:34:39;;;;;;;1999.90;999.90;;;;;;;;;;4961067;28;20788;-74
2023/07/20 14:37:23;;;;;;;1999.90;999.90;;;;;;;;;;4950142;28;20208;-72
2023/07/20 14:40:10;;;;;;;1999.90;999.90;;;;;;;;;;4956697;28;20316;-71
2023/07/20 14:42:55;;;;;;;1999.90;999.90;;;;;;;;;;4953846;28;20460;-72
2023/07/20 14:45:41;;;;;;;1999.90;999.90;;;;;;;;;;4957523;28;20478;-72
2023/07/20 14:48:26;;;;;;;1999.90;999.90;;;;;;;;;;4955035;28;20212;-72
2023/07/20 14:51:12;;;;;;;1999.90;999.90;;;;;;;;;;4952525;28;20220;-72
2023/07/20 14:53:57;;;;;;;1999.90;999.90;;;;;;;;;;4949180;28;20228;-73
2023/07/20 14:56:50;;;;;;;1999.90;999.90;;;;;;;;;;4957002;28;21422;-71
2023/07/20 14:59:35;;;;;;;1999.90;999.90;;;;;;;;;;4951183;28;20231;-72
2023/07/20 15:02:20;;;;;;;1999.90;999.90;;;;;;;;;;4950669;28;20444;-72
2023/07/20 15:05:07;;;;;;;1999.90;999.90;;;;;;;;;;4951875;28;20376;-72
2023/07/20 15:07:54;;;;;;;1999.90;999.90;;;;;;;;;;4950403;28;20460;-72
2023/07/20 15:10:39;;;;;;;1999.90;999.90;;;;;;;;;;4953838;28;20216;-72
2023/07/20 15:13:24;;;;;;;1999.90;999.90;;;;;;;;;;4964084;28;20313;-72
2023/07/20 15:16:09;;;;;;;1999.90;999.90;;;;;;;;;;4956121;28;20224;-72
2023/07/20 15:18:54;;;;;;;1999.90;999.90;;;;;;;;;;4952537;28;20224;-72
2023/07/20 15:21:39;;;;;;;1999.90;999.90;;;;;;;;;;4962647;28;20736;-71
2023/07/20 15:24:25;;;;;;;1999.90;999.90;;;;;;;;;;4951723;28;20235;-72
2023/07/20 15:27:10;;;;;;;1999.90;999.90;;;;;;;;;;4963577;28;20208;-72
2023/07/20 15:29:55;;;;;;;1999.90;999.90;;;;;;;;;;4954658;28;20425;-72
2023/07/20 15:32:41;;;;;;;1999.90;999.90;;;;;;;;;;4953894;28;20209;-72
2023/07/20 15:35:26;;;;;;;1999.90;999.90;;;;;;;;;;4955546;28;20315;-72
2023/07/20 15:38:11;;;;;;;1999.90;999.90;;;;;;;;;;4954213;28;20441;-73
2023/07/20 15:41:00;;;;;;;1999.90;999.90;;;;;;;;;;4955938;28;20716;-72
2023/07/20 15:43:46;;;;;;;1999.90;999.90;;;;;;;;;;4954858;29;20237;-72
2023/07/20 15:46:45;;;;;;;1999.90;999.90;;;;;;;;;;4955688;28;20221;-72
2023/07/20 15:49:30;;;;;;;1999.90;999.90;;;;;;;;;;4958059;28;20429;-73
2023/07/20 15:52:15;;;;;;;1999.90;999.90;;;;;;;;;;4958215;28;20584;-73
2023/07/20 15:55:00;;;;;;;1999.90;999.90;;;;;;;;;;4955686;28;20289;-74
2023/07/20 15:57:46;;;;;;;1999.90;999.90;;;;;;;;;;4955531;29;20428;-73
2023/07/20 16:00:30;;;;;;;1999.90;999.90;;;;;;;;;;4953141;28;20212;-73
2023/07/20 16:03:15;;;;;;;1999.90;999.90;;;;;;;;;;4954437;28;20252;-73
2023/07/20 16:06:01;;;;;;;1999.90;999.90;;;;;;;;;;4955445;28;20221;-73
2023/07/20 16:08:46;;;;;;;1999.90;999.90;;;;;;;;;;4954551;28;20220;-73
2023/07/20 16:11:31;;;;;;;1999.90;999.90;;;;;;;;;;4947194;29;20261;-72
2023/07/20 16:14:18;;;;;;;1999.90;999.90;;;;;;;;;;4955427;28;20601;-73
2023/07/20 16:17:03;;;;;;;1999.90;999.90;;;;;;;;;;4953487;28;20208;-73
2023/07/20 16:19:48;;;;;;;1999.90;999.90;;;;;;;;;;4955078;28;20228;-74
2023/07/20 16:22:33;;;;;;;1999.90;999.90;;;;;;;;;;4954478;28;20236;-72
2023/07/20 16:25:18;;;;;;;1999.90;999.90;;;;;;;;;;4955472;28;20213;-74
2023/07/20 16:28:03;;;;;;;1999.90;999.90;;;;;;;;;;4953329;28;20217;-73
2023/07/20 16:30:50;;;;;;;1999.90;999.90;;;;;;;;;;4955105;28;20336;-73
2023/07/20 16:33:34;;;;;;;1999.90;999.90;;;;;;;;;;4948224;28;20421;-73
2023/07/20 16:36:19;;;;;;;1999.90;999.90;;;;;;;;;;4945872;28;20212;-73
2023/07/20 16:39:04;;;;;;;1999.90;999.90;;;;;;;;;;4951259;28;20224;-73
2023/07/20 16:41:49;;;;;;;1999.90;999.90;;;;;;;;;;4953932;28;20228;-73
2023/07/20 16:44:34;;;;;;;1999.90;999.90;;;;;;;;;;4952553;28;20235;-73
2023/07/20 16:47:21;;;;;;;1999.90;999.90;;;;;;;;;;4955179;28;20243;-73
2023/07/20 16:50:07;;;;;;;1999.90;999.90;;;;;;;;;;4954389;28;20317;-73
2023/07/20 16:52:52;;;;;;;1999.90;999.90;;;;;;;;;;4955435;28;20570;-73
2023/07/20 16:55:40;;;;;;;1999.90;999.90;;;;;;;;;;4955112;29;20272;-73
2023/07/20 16:58:26;;;;;;;1999.90;999.90;;;;;;;;;;4952445;28;20276;-73